EGMD

Details ICAO EGMD (LYX)
Name Lydd
Region United Kingdom
Timezone Europe/London (UTC+0.0)
Plans Departing 47
Arriving 50
Stats Elevation 13 ft / 4 m (AMSL)
Location 50.956171° 0.939147°
Runways 1
Magnetic Variation 0.030° W
Sunrise 2017-12-12 07:51:33 UTC / 2017-12-12 07:51:33 Local
Sunset 2017-12-12 15:51:16 UTC / 2017-12-12 15:51:16 Local
Advertisement - Login to hide

Runways

ID Width Length Bearing (true) Bearing (mag) Surface Threshold Offset Overrun Length
03 105 ft / 32 m 4,928 ft / 1,502 m 32.64° 32.67° Asphalt 0 ft / 0 m 0 ft / 0 m
21 105 ft / 32 m 4,928 ft / 1,502 m 212.65° 212.68° Asphalt 112 ft / 34 m 0 ft / 0 m

Approach Navaids

Runway Type Ident Frequency Range Bearing (true) Bearing (mag) Slope Elevation
21 Localiser ILDY 108.15 MHz 18 nm / 33 km 203.16° 203.19° - 13 ft / 4 m (AMSL)
21 Glidescope ILDY 108.15 MHz 10 nm / 19 km 212.65° 212.68° 3.50° 13 ft / 4 m (AMSL)

Map

Weather


0- 5 10 15 20 25 30 35+ Temperature / ° C

Clouds and Precipitation
Forecast for 2017-12-12 18:00 UTC. Updated an hour ago

Ground ~20,000 ft ~40,000 ft Winds

METAR

EGMD 121820Z 23004KT CAVOK 02/00 Q1011

TAF

Not found

Frequencies

Recorded 129.23 MHz Lydd Information
Approach 120.70 MHz Lydd Approach
Tower 128.53 MHz Lydd Tower
Warning: Do not use this data for real-world aviation or navigation. No guarantee of current accuracy is given.